sensor_id;sensor_type;location;lat;lon;timestamp;P1;durP1;ratioP1;P2;durP2;ratioP2
23588;SDS011;11972;48.078;11.876;2024-02-21T00:00:53;1.90;;;0.90;;
23588;SDS011;11972;48.078;11.876;2024-02-21T00:04:54;1.10;;;0.57;;
23588;SDS011;11972;48.078;11.876;2024-02-21T00:08:54;2.90;;;0.75;;
23588;SDS011;11972;48.078;11.876;2024-02-21T00:12:54;2.70;;;0.95;;
23588;SDS011;11972;48.078;11.876;2024-02-21T00:16:55;1.73;;;0.77;;
23588;SDS011;11972;48.078;11.876;2024-02-21T00:20:55;2.90;;;1.10;;
23588;SDS011;11972;48.078;11.876;2024-02-21T00:24:56;2.25;;;0.90;;
23588;SDS011;11972;48.078;11.876;2024-02-21T00:28:58;1.30;;;0.80;;
23588;SDS011;11972;48.078;11.876;2024-02-21T00:32:58;3.22;;;1.10;;
23588;SDS011;11972;48.078;11.876;2024-02-21T00:36:58;2.13;;;0.98;;
23588;SDS011;11972;48.078;11.876;2024-02-21T00:40:59;2.83;;;1.10;;
23588;SDS011;11972;48.078;11.876;2024-02-21T00:44:59;0.85;;;0.63;;
23588;SDS011;11972;48.078;11.876;2024-02-21T00:48:59;1.20;;;0.70;;
23588;SDS011;11972;48.078;11.876;2024-02-21T00:53:00;2.50;;;0.70;;
23588;SDS011;11972;48.078;11.876;2024-02-21T00:57:00;1.50;;;0.80;;
23588;SDS011;11972;48.078;11.876;2024-02-21T01:01:01;1.65;;;0.60;;
23588;SDS011;11972;48.078;11.876;2024-02-21T01:05:01;1.88;;;0.70;;
23588;SDS011;11972;48.078;11.876;2024-02-21T01:09:02;1.95;;;0.60;;
23588;SDS011;11972;48.078;11.876;2024-02-21T01:13:03;1.95;;;0.63;;
23588;SDS011;11972;48.078;11.876;2024-02-21T01:17:03;1.38;;;0.63;;
23588;SDS011;11972;48.078;11.876;2024-02-21T01:21:06;1.33;;;0.70;;
23588;SDS011;11972;48.078;11.876;2024-02-21T01:25:07;2.67;;;0.77;;
23588;SDS011;11972;48.078;11.876;2024-02-21T01:29:07;1.70;;;0.40;;
23588;SDS011;11972;48.078;11.876;2024-02-21T01:33:08;0.77;;;0.50;;
23588;SDS011;11972;48.078;11.876;2024-02-21T01:37:09;2.33;;;0.82;;
23588;SDS011;11972;48.078;11.876;2024-02-21T01:41:09;0.90;;;0.45;;
23588;SDS011;11972;48.078;11.876;2024-02-21T01:45:10;1.83;;;0.50;;
23588;SDS011;11972;48.078;11.876;2024-02-21T01:49:10;3.03;;;0.60;;
23588;SDS011;11972;48.078;11.876;2024-02-21T01:53:11;1.33;;;0.50;;
23588;SDS011;11972;48.078;11.876;2024-02-21T01:57:18;1.98;;;0.50;;
23588;SDS011;11972;48.078;11.876;2024-02-21T02:01:19;1.08;;;0.60;;
23588;SDS011;11972;48.078;11.876;2024-02-21T02:05:19;1.20;;;0.50;;
23588;SDS011;11972;48.078;11.876;2024-02-21T02:09:21;1.50;;;0.50;;
23588;SDS011;11972;48.078;11.876;2024-02-21T02:13:21;0.95;;;0.40;;
23588;SDS011;11972;48.078;11.876;2024-02-21T02:17:21;1.42;;;0.50;;
23588;SDS011;11972;48.078;11.876;2024-02-21T02:21:23;0.90;;;0.50;;
23588;SDS011;11972;48.078;11.876;2024-02-21T02:25:32;1.08;;;0.50;;
23588;SDS011;11972;48.078;11.876;2024-02-21T02:29:33;2.22;;;0.95;;
23588;SDS011;11972;48.078;11.876;2024-02-21T02:33:33;1.33;;;0.73;;
23588;SDS011;11972;48.078;11.876;2024-02-21T02:37:34;1.17;;;0.50;;
23588;SDS011;11972;48.078;11.876;2024-02-21T02:41:35;1.60;;;0.50;;
23588;SDS011;11972;48.078;11.876;2024-02-21T02:45:38;0.40;;;0.40;;
23588;SDS011;11972;48.078;11.876;2024-02-21T02:49:38;2.15;;;0.50;;
23588;SDS011;11972;48.078;11.876;2024-02-21T02:53:38;1.15;;;0.50;;
23588;SDS011;11972;48.078;11.876;2024-02-21T02:57:39;1.70;;;0.40;;
23588;SDS011;11972;48.078;11.876;2024-02-21T03:01:41;1.08;;;0.55;;
23588;SDS011;11972;48.078;11.876;2024-02-21T03:05:41;1.17;;;0.50;;
23588;SDS011;11972;48.078;11.876;2024-02-21T03:09:42;0.90;;;0.43;;
23588;SDS011;11972;48.078;11.876;2024-02-21T03:13:45;1.08;;;0.60;;
23588;SDS011;11972;48.078;11.876;2024-02-21T03:17:46;0.40;;;0.30;;
23588;SDS011;11972;48.078;11.876;2024-02-21T03:21:46;1.90;;;0.40;;
23588;SDS011;11972;48.078;11.876;2024-02-21T03:25:46;1.10;;;0.50;;
23588;SDS011;11972;48.078;11.876;2024-02-21T03:29:47;1.20;;;0.50;;
23588;SDS011;11972;48.078;11.876;2024-02-21T03:33:47;0.80;;;0.40;;
23588;SDS011;11972;48.078;11.876;2024-02-21T03:37:48;2.05;;;0.57;;
23588;SDS011;11972;48.078;11.876;2024-02-21T03:41:48;1.65;;;0.63;;
23588;SDS011;11972;48.078;11.876;2024-02-21T03:45:48;1.67;;;0.50;;
23588;SDS011;11972;48.078;11.876;2024-02-21T03:49:49;0.75;;;0.50;;
23588;SDS011;11972;48.078;11.876;2024-02-21T03:53:50;1.08;;;0.50;;
23588;SDS011;11972;48.078;11.876;2024-02-21T03:57:50;1.15;;;0.43;;
23588;SDS011;11972;48.078;11.876;2024-02-21T04:01:53;1.20;;;0.40;;
23588;SDS011;11972;48.078;11.876;2024-02-21T04:05:54;1.02;;;0.30;;
23588;SDS011;11972;48.078;11.876;2024-02-21T04:09:54;4.00;;;0.73;;
23588;SDS011;11972;48.078;11.876;2024-02-21T04:13:54;0.85;;;0.30;;
23588;SDS011;11972;48.078;11.876;2024-02-21T04:17:55;0.90;;;0.40;;
23588;SDS011;11972;48.078;11.876;2024-02-21T04:21:55;4.10;;;0.50;;
23588;SDS011;11972;48.078;11.876;2024-02-21T04:25:55;1.58;;;0.32;;
23588;SDS011;11972;48.078;11.876;2024-02-21T04:29:56;1.50;;;0.40;;
23588;SDS011;11972;48.078;11.876;2024-02-21T04:33:56;0.85;;;0.40;;
23588;SDS011;11972;48.078;11.876;2024-02-21T04:37:56;0.65;;;0.30;;
23588;SDS011;11972;48.078;11.876;2024-02-21T04:41:57;1.25;;;0.52;;
23588;SDS011;11972;48.078;11.876;2024-02-21T04:45:57;0.75;;;0.43;;
23588;SDS011;11972;48.078;11.876;2024-02-21T04:49:57;1.98;;;0.40;;
23588;SDS011;11972;48.078;11.876;2024-02-21T04:53:58;0.93;;;0.40;;
23588;SDS011;11972;48.078;11.876;2024-02-21T04:57:58;0.85;;;0.50;;
23588;SDS011;11972;48.078;11.876;2024-02-21T05:01:58;1.02;;;0.40;;
23588;SDS011;11972;48.078;11.876;2024-02-21T05:05:59;0.45;;;0.30;;
23588;SDS011;11972;48.078;11.876;2024-02-21T05:09:59;1.17;;;0.40;;
23588;SDS011;11972;48.078;11.876;2024-02-21T05:14:00;0.57;;;0.40;;
23588;SDS011;11972;48.078;11.876;2024-02-21T05:18:00;1.85;;;0.32;;
23588;SDS011;11972;48.078;11.876;2024-02-21T05:22:01;0.95;;;0.47;;
23588;SDS011;11972;48.078;11.876;2024-02-21T05:26:01;2.45;;;0.50;;
23588;SDS011;11972;48.078;11.876;2024-02-21T05:30:01;0.88;;;0.50;;
23588;SDS011;11972;48.078;11.876;2024-02-21T05:34:02;1.45;;;0.60;;
23588;SDS011;11972;48.078;11.876;2024-02-21T05:38:04;1.63;;;0.50;;
23588;SDS011;11972;48.078;11.876;2024-02-21T05:42:11;1.83;;;0.88;;
23588;SDS011;11972;48.078;11.876;2024-02-21T05:46:11;1.52;;;0.82;;
23588;SDS011;11972;48.078;11.876;2024-02-21T05:50:13;2.22;;;1.13;;
23588;SDS011;11972;48.078;11.876;2024-02-21T05:54:13;1.40;;;0.52;;
23588;SDS011;11972;48.078;11.876;2024-02-21T05:58:13;2.47;;;0.73;;
23588;SDS011;11972;48.078;11.876;2024-02-21T06:02:14;1.77;;;0.40;;
23588;SDS011;11972;48.078;11.876;2024-02-21T06:06:14;1.95;;;0.70;;
23588;SDS011;11972;48.078;11.876;2024-02-21T06:10:14;2.50;;;0.88;;
23588;SDS011;11972;48.078;11.876;2024-02-21T06:14:15;1.20;;;0.73;;
23588;SDS011;11972;48.078;11.876;2024-02-21T06:18:18;1.33;;;0.90;;
23588;SDS011;11972;48.078;11.876;2024-02-21T06:22:20;3.30;;;0.90;;
23588;SDS011;11972;48.078;11.876;2024-02-21T06:26:20;1.77;;;0.90;;
23588;SDS011;11972;48.078;11.876;2024-02-21T06:30:20;19.08;;;12.95;;
23588;SDS011;11972;48.078;11.876;2024-02-21T06:34:21;17.92;;;11.85;;
23588;SDS011;11972;48.078;11.876;2024-02-21T06:38:21;2.97;;;2.42;;
23588;SDS011;11972;48.078;11.876;2024-02-21T06:42:24;6.38;;;4.82;;
23588;SDS011;11972;48.078;11.876;2024-02-21T06:46:28;4.15;;;2.55;;
23588;SDS011;11972;48.078;11.876;2024-02-21T06:50:29;2.90;;;2.45;;
23588;SDS011;11972;48.078;11.876;2024-02-21T06:54:30;2.50;;;1.52;;
23588;SDS011;11972;48.078;11.876;2024-02-21T06:58:30;4.80;;;1.30;;
23588;SDS011;11972;48.078;11.876;2024-02-21T07:02:31;2.80;;;1.00;;
23588;SDS011;11972;48.078;11.876;2024-02-21T07:06:31;2.80;;;0.90;;
23588;SDS011;11972;48.078;11.876;2024-02-21T07:10:31;2.35;;;1.17;;
23588;SDS011;11972;48.078;11.876;2024-02-21T07:14:32;1.30;;;0.77;;
23588;SDS011;11972;48.078;11.876;2024-02-21T07:18:33;2.03;;;1.33;;
23588;SDS011;11972;48.078;11.876;2024-02-21T07:22:33;1.63;;;1.10;;
23588;SDS011;11972;48.078;11.876;2024-02-21T07:26:34;1.45;;;0.88;;
23588;SDS011;11972;48.078;11.876;2024-02-21T07:30:34;2.50;;;1.60;;
23588;SDS011;11972;48.078;11.876;2024-02-21T07:34:35;2.30;;;1.10;;
23588;SDS011;11972;48.078;11.876;2024-02-21T07:38:35;2.72;;;0.98;;
23588;SDS011;11972;48.078;11.876;2024-02-21T07:42:35;1.38;;;0.90;;
23588;SDS011;11972;48.078;11.876;2024-02-21T07:46:36;2.60;;;1.10;;
23588;SDS011;11972;48.078;11.876;2024-02-21T07:50:36;1.33;;;0.70;;
23588;SDS011;11972;48.078;11.876;2024-02-21T07:54:37;2.08;;;1.08;;
23588;SDS011;11972;48.078;11.876;2024-02-21T07:58:37;3.25;;;1.00;;
23588;SDS011;11972;48.078;11.876;2024-02-21T08:02:38;3.03;;;1.15;;
23588;SDS011;11972;48.078;11.876;2024-02-21T08:06:38;0.90;;;0.70;;
23588;SDS011;11972;48.078;11.876;2024-02-21T08:10:39;0.82;;;0.55;;
23588;SDS011;11972;48.078;11.876;2024-02-21T08:14:39;1.52;;;0.70;;
23588;SDS011;11972;48.078;11.876;2024-02-21T08:18:39;1.60;;;0.73;;
23588;SDS011;11972;48.078;11.876;2024-02-21T08:22:40;2.70;;;0.75;;
23588;SDS011;11972;48.078;11.876;2024-02-21T08:26:40;0.80;;;0.40;;
23588;SDS011;11972;48.078;11.876;2024-02-21T08:30:42;1.52;;;0.60;;
23588;SDS011;11972;48.078;11.876;2024-02-21T08:34:47;1.40;;;0.30;;
23588;SDS011;11972;48.078;11.876;2024-02-21T08:38:48;1.20;;;0.40;;
23588;SDS011;11972;48.078;11.876;2024-02-21T08:42:48;1.05;;;0.60;;
23588;SDS011;11972;48.078;11.876;2024-02-21T08:46:49;0.63;;;0.43;;
23588;SDS011;11972;48.078;11.876;2024-02-21T08:50:50;0.68;;;0.35;;
23588;SDS011;11972;48.078;11.876;2024-02-21T08:54:50;2.00;;;1.47;;
23588;SDS011;11972;48.078;11.876;2024-02-21T08:58:53;1.52;;;0.95;;
23588;SDS011;11972;48.078;11.876;2024-02-21T09:02:53;0.38;;;0.32;;
23588;SDS011;11972;48.078;11.876;2024-02-21T09:06:56;1.70;;;1.27;;
23588;SDS011;11972;48.078;11.876;2024-02-21T09:10:56;0.73;;;0.40;;
23588;SDS011;11972;48.078;11.876;2024-02-21T09:14:56;2.92;;;0.50;;
23588;SDS011;11972;48.078;11.876;2024-02-21T09:18:57;0.75;;;0.50;;
23588;SDS011;11972;48.078;11.876;2024-02-21T09:22:57;0.90;;;0.40;;
23588;SDS011;11972;48.078;11.876;2024-02-21T09:26:57;1.70;;;0.40;;
23588;SDS011;11972;48.078;11.876;2024-02-21T09:30:58;1.43;;;0.47;;
23588;SDS011;11972;48.078;11.876;2024-02-21T09:34:58;1.30;;;0.90;;
23588;SDS011;11972;48.078;11.876;2024-02-21T09:38:58;1.00;;;0.30;;
23588;SDS011;11972;48.078;11.876;2024-02-21T09:43:02;0.57;;;0.50;;
23588;SDS011;11972;48.078;11.876;2024-02-21T09:47:10;0.40;;;0.40;;
23588;SDS011;11972;48.078;11.876;2024-02-21T09:51:32;1.65;;;0.47;;
23588;SDS011;11972;48.078;11.876;2024-02-21T09:55:34;0.82;;;0.35;;
23588;SDS011;11972;48.078;11.876;2024-02-21T09:59:35;0.50;;;0.30;;
23588;SDS011;11972;48.078;11.876;2024-02-21T10:03:35;0.35;;;0.10;;
23588;SDS011;11972;48.078;11.876;2024-02-21T10:07:35;0.43;;;0.28;;
23588;SDS011;11972;48.078;11.876;2024-02-21T10:11:36;0.45;;;0.20;;
23588;SDS011;11972;48.078;11.876;2024-02-21T10:15:36;0.35;;;0.20;;
23588;SDS011;11972;48.078;11.876;2024-02-21T10:19:37;0.63;;;0.20;;
23588;SDS011;11972;48.078;11.876;2024-02-21T10:23:41;0.32;;;0.20;;
23588;SDS011;11972;48.078;11.876;2024-02-21T10:27:43;0.30;;;0.20;;
23588;SDS011;11972;48.078;11.876;2024-02-21T10:31:43;0.32;;;0.20;;
23588;SDS011;11972;48.078;11.876;2024-02-21T10:35:44;0.52;;;0.28;;
23588;SDS011;11972;48.078;11.876;2024-02-21T10:39:44;0.20;;;0.20;;
23588;SDS011;11972;48.078;11.876;2024-02-21T10:43:46;1.33;;;0.20;;
23588;SDS011;11972;48.078;11.876;2024-02-21T10:47:51;0.50;;;0.30;;
23588;SDS011;11972;48.078;11.876;2024-02-21T10:52:02;0.35;;;0.20;;
23588;SDS011;11972;48.078;11.876;2024-02-21T10:56:21;0.22;;;0.17;;
23588;SDS011;11972;48.078;11.876;2024-02-21T11:00:24;0.45;;;0.20;;
23588;SDS011;11972;48.078;11.876;2024-02-21T11:04:30;0.52;;;0.28;;
23588;SDS011;11972;48.078;11.876;2024-02-21T11:08:31;0.38;;;0.10;;
23588;SDS011;11972;48.078;11.876;2024-02-21T11:12:32;0.28;;;0.28;;
23588;SDS011;11972;48.078;11.876;2024-02-21T11:16:36;0.40;;;0.20;;
23588;SDS011;11972;48.078;11.876;2024-02-21T11:20:38;1.63;;;0.28;;
23588;SDS011;11972;48.078;11.876;2024-02-21T11:24:39;0.68;;;0.40;;
23588;SDS011;11972;48.078;11.876;2024-02-21T11:28:39;0.47;;;0.30;;
23588;SDS011;11972;48.078;11.876;2024-02-21T11:32:39;0.60;;;0.10;;
23588;SDS011;11972;48.078;11.876;2024-02-21T11:36:50;1.50;;;0.40;;
23588;SDS011;11972;48.078;11.876;2024-02-21T11:40:51;2.63;;;2.20;;
23588;SDS011;11972;48.078;11.876;2024-02-21T11:44:52;1.37;;;1.27;;
23588;SDS011;11972;48.078;11.876;2024-02-21T11:48:53;1.20;;;0.80;;
23588;SDS011;11972;48.078;11.876;2024-02-21T11:52:54;0.60;;;0.30;;
23588;SDS011;11972;48.078;11.876;2024-02-21T11:56:55;0.50;;;0.40;;
23588;SDS011;11972;48.078;11.876;2024-02-21T12:00:55;0.60;;;0.30;;
23588;SDS011;11972;48.078;11.876;2024-02-21T12:04:56;0.77;;;0.50;;
23588;SDS011;11972;48.078;11.876;2024-02-21T12:08:57;0.32;;;0.30;;
23588;SDS011;11972;48.078;11.876;2024-02-21T12:13:05;0.40;;;0.25;;
23588;SDS011;11972;48.078;11.876;2024-02-21T12:17:07;0.47;;;0.30;;
23588;SDS011;11972;48.078;11.876;2024-02-21T12:21:07;0.60;;;0.40;;
23588;SDS011;11972;48.078;11.876;2024-02-21T12:25:21;0.70;;;0.40;;
23588;SDS011;11972;48.078;11.876;2024-02-21T12:29:26;0.40;;;0.40;;
23588;SDS011;11972;48.078;11.876;2024-02-21T12:33:28;0.45;;;0.40;;
23588;SDS011;11972;48.078;11.876;2024-02-21T12:37:29;1.40;;;0.80;;
23588;SDS011;11972;48.078;11.876;2024-02-21T12:41:29;0.73;;;0.40;;
23588;SDS011;11972;48.078;11.876;2024-02-21T12:45:30;0.63;;;0.50;;
23588;SDS011;11972;48.078;11.876;2024-02-21T12:49:30;0.60;;;0.30;;
23588;SDS011;11972;48.078;11.876;2024-02-21T12:53:30;0.70;;;0.30;;
23588;SDS011;11972;48.078;11.876;2024-02-21T12:57:30;0.30;;;0.22;;
23588;SDS011;11972;48.078;11.876;2024-02-21T13:01:31;0.30;;;0.20;;
23588;SDS011;11972;48.078;11.876;2024-02-21T13:05:32;0.93;;;0.30;;
23588;SDS011;11972;48.078;11.876;2024-02-21T13:09:32;0.33;;;0.20;;
23588;SDS011;11972;48.078;11.876;2024-02-21T13:13:33;0.20;;;0.20;;
23588;SDS011;11972;48.078;11.876;2024-02-21T13:17:33;0.80;;;0.35;;
23588;SDS011;11972;48.078;11.876;2024-02-21T13:21:34;1.03;;;0.20;;
23588;SDS011;11972;48.078;11.876;2024-02-21T13:25:34;0.85;;;0.35;;
23588;SDS011;11972;48.078;11.876;2024-02-21T13:29:35;0.47;;;0.30;;
23588;SDS011;11972;48.078;11.876;2024-02-21T13:33:35;0.67;;;0.20;;
23588;SDS011;11972;48.078;11.876;2024-02-21T13:37:36;0.30;;;0.30;;
23588;SDS011;11972;48.078;11.876;2024-02-21T13:41:37;0.63;;;0.32;;
23588;SDS011;11972;48.078;11.876;2024-02-21T13:45:37;1.20;;;0.30;;
23588;SDS011;11972;48.078;11.876;2024-02-21T13:49:38;0.38;;;0.25;;
23588;SDS011;11972;48.078;11.876;2024-02-21T13:53:39;0.50;;;0.30;;
23588;SDS011;11972;48.078;11.876;2024-02-21T13:57:39;1.10;;;0.30;;
23588;SDS011;11972;48.078;11.876;2024-02-21T14:01:40;0.57;;;0.30;;
23588;SDS011;11972;48.078;11.876;2024-02-21T14:05:40;0.97;;;0.27;;
23588;SDS011;11972;48.078;11.876;2024-02-21T14:09:40;0.82;;;0.50;;
23588;SDS011;11972;48.078;11.876;2024-02-21T14:13:41;0.20;;;0.20;;
23588;SDS011;11972;48.078;11.876;2024-02-21T14:17:41;0.60;;;0.23;;
23588;SDS011;11972;48.078;11.876;2024-02-21T14:21:42;0.95;;;0.35;;
23588;SDS011;11972;48.078;11.876;2024-02-21T14:25:43;0.55;;;0.30;;
23588;SDS011;11972;48.078;11.876;2024-02-21T14:29:43;2.23;;;0.30;;
23588;SDS011;11972;48.078;11.876;2024-02-21T14:33:43;1.52;;;0.30;;
23588;SDS011;11972;48.078;11.876;2024-02-21T14:37:46;0.52;;;0.25;;
23588;SDS011;11972;48.078;11.876;2024-02-21T14:41:48;0.28;;;0.20;;
23588;SDS011;11972;48.078;11.876;2024-02-21T14:45:49;0.53;;;0.30;;
23588;SDS011;11972;48.078;11.876;2024-02-21T14:49:49;1.38;;;0.50;;
23588;SDS011;11972;48.078;11.876;2024-02-21T14:53:50;0.50;;;0.40;;
23588;SDS011;11972;48.078;11.876;2024-02-21T14:57:50;0.47;;;0.30;;
23588;SDS011;11972;48.078;11.876;2024-02-21T15:01:50;0.80;;;0.40;;
23588;SDS011;11972;48.078;11.876;2024-02-21T15:05:51;0.73;;;0.50;;
23588;SDS011;11972;48.078;11.876;2024-02-21T15:09:51;0.75;;;0.40;;
23588;SDS011;11972;48.078;11.876;2024-02-21T15:13:51;0.77;;;0.43;;
23588;SDS011;11972;48.078;11.876;2024-02-21T15:17:52;0.53;;;0.30;;
23588;SDS011;11972;48.078;11.876;2024-02-21T15:21:52;1.00;;;0.43;;
23588;SDS011;11972;48.078;11.876;2024-02-21T15:25:53;3.20;;;1.38;;
23588;SDS011;11972;48.078;11.876;2024-02-21T15:29:53;1.27;;;1.10;;
23588;SDS011;11972;48.078;11.876;2024-02-21T15:33:54;0.90;;;0.50;;
23588;SDS011;11972;48.078;11.876;2024-02-21T15:37:55;0.82;;;0.70;;
23588;SDS011;11972;48.078;11.876;2024-02-21T15:41:56;1.40;;;1.30;;
23588;SDS011;11972;48.078;11.876;2024-02-21T15:45:56;2.13;;;0.70;;
23588;SDS011;11972;48.078;11.876;2024-02-21T15:49:57;1.73;;;0.70;;
23588;SDS011;11972;48.078;11.876;2024-02-21T15:53:59;0.70;;;0.40;;
23588;SDS011;11972;48.078;11.876;2024-02-21T15:57:59;0.80;;;0.50;;
23588;SDS011;11972;48.078;11.876;2024-02-21T16:01:59;0.93;;;0.40;;
23588;SDS011;11972;48.078;11.876;2024-02-21T16:06:00;0.50;;;0.47;;
23588;SDS011;11972;48.078;11.876;2024-02-21T16:10:01;1.85;;;0.60;;
23588;SDS011;11972;48.078;11.876;2024-02-21T16:14:01;0.60;;;0.47;;
23588;SDS011;11972;48.078;11.876;2024-02-21T16:18:02;0.52;;;0.45;;
23588;SDS011;11972;48.078;11.876;2024-02-21T16:22:03;0.50;;;0.50;;
23588;SDS011;11972;48.078;11.876;2024-02-21T16:26:04;2.08;;;0.60;;
23588;SDS011;11972;48.078;11.876;2024-02-21T16:30:05;3.70;;;1.30;;
23588;SDS011;11972;48.078;11.876;2024-02-21T16:34:07;1.45;;;1.05;;
23588;SDS011;11972;48.078;11.876;2024-02-21T16:38:07;1.60;;;1.10;;
23588;SDS011;11972;48.078;11.876;2024-02-21T16:42:09;1.40;;;1.08;;
23588;SDS011;11972;48.078;11.876;2024-02-21T16:46:10;2.92;;;1.27;;
23588;SDS011;11972;48.078;11.876;2024-02-21T16:50:11;3.40;;;1.85;;
23588;SDS011;11972;48.078;11.876;2024-02-21T16:54:11;7.15;;;3.22;;
23588;SDS011;11972;48.078;11.876;2024-02-21T16:58:11;4.43;;;2.75;;
23588;SDS011;11972;48.078;11.876;2024-02-21T17:02:13;5.03;;;4.20;;
23588;SDS011;11972;48.078;11.876;2024-02-21T17:06:13;4.28;;;3.88;;
23588;SDS011;11972;48.078;11.876;2024-02-21T17:10:13;6.20;;;4.45;;
23588;SDS011;11972;48.078;11.876;2024-02-21T17:14:14;4.43;;;3.30;;
23588;SDS011;11972;48.078;11.876;2024-02-21T17:18:14;4.05;;;3.00;;
23588;SDS011;11972;48.078;11.876;2024-02-21T17:22:15;4.25;;;2.55;;
23588;SDS011;11972;48.078;11.876;2024-02-21T17:26:15;4.78;;;3.30;;
23588;SDS011;11972;48.078;11.876;2024-02-21T17:30:16;6.32;;;4.10;;
23588;SDS011;11972;48.078;11.876;2024-02-21T17:34:16;8.18;;;4.40;;
23588;SDS011;11972;48.078;11.876;2024-02-21T17:38:17;7.53;;;3.65;;
23588;SDS011;11972;48.078;11.876;2024-02-21T17:42:19;5.82;;;2.42;;
23588;SDS011;11972;48.078;11.876;2024-02-21T17:46:19;2.90;;;1.73;;
23588;SDS011;11972;48.078;11.876;2024-02-21T17:50:20;4.20;;;2.05;;
23588;SDS011;11972;48.078;11.876;2024-02-21T17:54:21;6.05;;;2.13;;
23588;SDS011;11972;48.078;11.876;2024-02-21T17:58:22;2.05;;;1.50;;
23588;SDS011;11972;48.078;11.876;2024-02-21T18:02:23;2.42;;;1.30;;
23588;SDS011;11972;48.078;11.876;2024-02-21T18:06:23;2.17;;;1.20;;
23588;SDS011;11972;48.078;11.876;2024-02-21T18:10:27;2.65;;;1.00;;
23588;SDS011;11972;48.078;11.876;2024-02-21T18:14:31;2.97;;;1.80;;
23588;SDS011;11972;48.078;11.876;2024-02-21T18:18:31;1.77;;;1.60;;
23588;SDS011;11972;48.078;11.876;2024-02-21T18:22:32;4.05;;;3.10;;
23588;SDS011;11972;48.078;11.876;2024-02-21T18:26:32;5.93;;;5.05;;
23588;SDS011;11972;48.078;11.876;2024-02-21T18:30:32;5.78;;;3.70;;
23588;SDS011;11972;48.078;11.876;2024-02-21T18:34:33;5.05;;;3.25;;
23588;SDS011;11972;48.078;11.876;2024-02-21T18:38:34;4.55;;;3.53;;
23588;SDS011;11972;48.078;11.876;2024-02-21T18:42:34;4.43;;;3.25;;
23588;SDS011;11972;48.078;11.876;2024-02-21T18:46:34;5.07;;;3.60;;
23588;SDS011;11972;48.078;11.876;2024-02-21T18:50:36;6.55;;;4.72;;
23588;SDS011;11972;48.078;11.876;2024-02-21T18:54:39;6.45;;;4.57;;
23588;SDS011;11972;48.078;11.876;2024-02-21T18:58:41;13.50;;;10.57;;
23588;SDS011;11972;48.078;11.876;2024-02-21T19:02:42;9.45;;;7.60;;
23588;SDS011;11972;48.078;11.876;2024-02-21T19:06:42;6.63;;;5.53;;
23588;SDS011;11972;48.078;11.876;2024-02-21T19:10:43;5.97;;;4.63;;
23588;SDS011;11972;48.078;11.876;2024-02-21T19:14:44;7.13;;;5.10;;
23588;SDS011;11972;48.078;11.876;2024-02-21T19:18:44;8.68;;;6.65;;
23588;SDS011;11972;48.078;11.876;2024-02-21T19:22:45;7.90;;;4.53;;
23588;SDS011;11972;48.078;11.876;2024-02-21T19:26:47;4.38;;;2.85;;
23588;SDS011;11972;48.078;11.876;2024-02-21T19:30:47;3.38;;;2.28;;
23588;SDS011;11972;48.078;11.876;2024-02-21T19:34:47;3.80;;;3.05;;
23588;SDS011;11972;48.078;11.876;2024-02-21T19:38:48;3.22;;;2.80;;
23588;SDS011;11972;48.078;11.876;2024-02-21T19:42:49;4.93;;;2.65;;
23588;SDS011;11972;48.078;11.876;2024-02-21T19:46:49;3.58;;;2.25;;
23588;SDS011;11972;48.078;11.876;2024-02-21T19:50:51;3.42;;;1.90;;
23588;SDS011;11972;48.078;11.876;2024-02-21T19:54:53;2.05;;;1.60;;
23588;SDS011;11972;48.078;11.876;2024-02-21T19:58:54;1.90;;;1.70;;
23588;SDS011;11972;48.078;11.876;2024-02-21T20:02:55;4.45;;;2.05;;
23588;SDS011;11972;48.078;11.876;2024-02-21T20:06:56;3.33;;;2.75;;
23588;SDS011;11972;48.078;11.876;2024-02-21T20:10:56;2.90;;;2.05;;
23588;SDS011;11972;48.078;11.876;2024-02-21T20:14:57;2.50;;;2.08;;
23588;SDS011;11972;48.078;11.876;2024-02-21T20:18:57;3.33;;;2.22;;
23588;SDS011;11972;48.078;11.876;2024-02-21T20:22:58;4.82;;;1.90;;
23588;SDS011;11972;48.078;11.876;2024-02-21T20:26:58;6.55;;;2.90;;
23588;SDS011;11972;48.078;11.876;2024-02-21T20:31:01;5.53;;;3.38;;
23588;SDS011;11972;48.078;11.876;2024-02-21T20:35:03;3.78;;;2.97;;
23588;SDS011;11972;48.078;11.876;2024-02-21T20:39:06;4.28;;;2.85;;
23588;SDS011;11972;48.078;11.876;2024-02-21T20:43:08;2.97;;;2.53;;
23588;SDS011;11972;48.078;11.876;2024-02-21T20:47:09;6.18;;;3.15;;
23588;SDS011;11972;48.078;11.876;2024-02-21T20:51:10;5.18;;;2.88;;
23588;SDS011;11972;48.078;11.876;2024-02-21T20:55:11;2.90;;;2.60;;
23588;SDS011;11972;48.078;11.876;2024-02-21T20:59:14;2.75;;;2.33;;
23588;SDS011;11972;48.078;11.876;2024-02-21T21:03:15;3.38;;;2.03;;
23588;SDS011;11972;48.078;11.876;2024-02-21T21:07:15;5.90;;;3.17;;
23588;SDS011;11972;48.078;11.876;2024-02-21T21:11:16;3.92;;;3.28;;
23588;SDS011;11972;48.078;11.876;2024-02-21T21:15:17;2.25;;;1.75;;
23588;SDS011;11972;48.078;11.876;2024-02-21T21:19:18;3.03;;;1.60;;
23588;SDS011;11972;48.078;11.876;2024-02-21T21:23:18;2.28;;;1.45;;
23588;SDS011;11972;48.078;11.876;2024-02-21T21:27:19;1.55;;;1.13;;
23588;SDS011;11972;48.078;11.876;2024-02-21T21:31:19;2.20;;;1.70;;
23588;SDS011;11972;48.078;11.876;2024-02-21T21:35:20;2.42;;;1.50;;
23588;SDS011;11972;48.078;11.876;2024-02-21T21:39:20;1.80;;;1.55;;
23588;SDS011;11972;48.078;11.876;2024-02-21T21:43:21;6.35;;;2.40;;
23588;SDS011;11972;48.078;11.876;2024-02-21T21:47:22;2.65;;;1.73;;
23588;SDS011;11972;48.078;11.876;2024-02-21T21:51:22;1.70;;;1.60;;
23588;SDS011;11972;48.078;11.876;2024-02-21T21:55:27;2.10;;;1.70;;
23588;SDS011;11972;48.078;11.876;2024-02-21T21:59:27;2.40;;;1.80;;
23588;SDS011;11972;48.078;11.876;2024-02-21T22:03:27;3.30;;;1.63;;
23588;SDS011;11972;48.078;11.876;2024-02-21T22:07:28;6.80;;;4.63;;
23588;SDS011;11972;48.078;11.876;2024-02-21T22:11:28;1.67;;;1.30;;
23588;SDS011;11972;48.078;11.876;2024-02-21T22:15:29;1.58;;;1.20;;
23588;SDS011;11972;48.078;11.876;2024-02-21T22:19:29;2.38;;;1.50;;
23588;SDS011;11972;48.078;11.876;2024-02-21T22:23:29;1.85;;;1.65;;
23588;SDS011;11972;48.078;11.876;2024-02-21T22:27:30;2.20;;;1.70;;
23588;SDS011;11972;48.078;11.876;2024-02-21T22:31:30;1.83;;;1.50;;
23588;SDS011;11972;48.078;11.876;2024-02-21T22:35:31;3.30;;;1.42;;
23588;SDS011;11972;48.078;11.876;2024-02-21T22:39:31;1.50;;;1.30;;
23588;SDS011;11972;48.078;11.876;2024-02-21T22:43:32;2.08;;;1.40;;
23588;SDS011;11972;48.078;11.876;2024-02-21T22:47:33;1.58;;;1.20;;
23588;SDS011;11972;48.078;11.876;2024-02-21T22:51:33;1.35;;;1.17;;
23588;SDS011;11972;48.078;11.876;2024-02-21T22:55:33;1.60;;;1.15;;
23588;SDS011;11972;48.078;11.876;2024-02-21T22:59:34;1.80;;;1.30;;
23588;SDS011;11972;48.078;11.876;2024-02-21T23:03:34;3.00;;;1.75;;
23588;SDS011;11972;48.078;11.876;2024-02-21T23:07:35;3.50;;;1.52;;
23588;SDS011;11972;48.078;11.876;2024-02-21T23:11:35;3.05;;;2.20;;
23588;SDS011;11972;48.078;11.876;2024-02-21T23:15:36;1.52;;;1.17;;
23588;SDS011;11972;48.078;11.876;2024-02-21T23:19:36;2.03;;;1.00;;
23588;SDS011;11972;48.078;11.876;2024-02-21T23:23:36;4.28;;;1.40;;
23588;SDS011;11972;48.078;11.876;2024-02-21T23:27:37;3.05;;;1.27;;
23588;SDS011;11972;48.078;11.876;2024-02-21T23:31:38;2.45;;;1.20;;
23588;SDS011;11972;48.078;11.876;2024-02-21T23:35:39;1.83;;;1.30;;
23588;SDS011;11972;48.078;11.876;2024-02-21T23:39:39;1.83;;;1.35;;
23588;SDS011;11972;48.078;11.876;2024-02-21T23:43:40;1.10;;;0.90;;
23588;SDS011;11972;48.078;11.876;2024-02-21T23:47:41;1.35;;;1.10;;